sensor_id;sensor_type;location;lat;lon;timestamp;P1;durP1;ratioP1;P2;durP2;ratioP2
75758;SDS011;64371;47.566;19.086;2023-10-19T00:01:16;16.48;;;9.10;;
75758;SDS011;64371;47.566;19.086;2023-10-19T00:04:20;15.87;;;9.10;;
75758;SDS011;64371;47.566;19.086;2023-10-19T00:07:24;18.05;;;9.60;;
75758;SDS011;64371;47.566;19.086;2023-10-19T00:10:26;15.68;;;8.95;;
75758;SDS011;64371;47.566;19.086;2023-10-19T00:13:38;16.42;;;9.30;;
75758;SDS011;64371;47.566;19.086;2023-10-19T00:16:44;16.75;;;9.05;;
75758;SDS011;64371;47.566;19.086;2023-10-19T00:19:55;15.73;;;9.13;;
75758;SDS011;64371;47.566;19.086;2023-10-19T00:23:16;17.42;;;9.18;;
75758;SDS011;64371;47.566;19.086;2023-10-19T00:26:34;14.48;;;8.95;;
75758;SDS011;64371;47.566;19.086;2023-10-19T00:29:36;14.68;;;8.98;;
75758;SDS011;64371;47.566;19.086;2023-10-19T00:32:49;19.05;;;9.00;;
75758;SDS011;64371;47.566;19.086;2023-10-19T00:35:53;17.37;;;9.60;;
75758;SDS011;64371;47.566;19.086;2023-10-19T00:39:11;18.70;;;10.00;;
75758;SDS011;64371;47.566;19.086;2023-10-19T00:42:22;16.92;;;9.93;;
75758;SDS011;64371;47.566;19.086;2023-10-19T00:45:33;17.25;;;9.50;;
75758;SDS011;64371;47.566;19.086;2023-10-19T00:48:43;16.60;;;9.20;;
75758;SDS011;64371;47.566;19.086;2023-10-19T00:51:52;17.93;;;9.70;;
75758;SDS011;64371;47.566;19.086;2023-10-19T00:55:05;17.95;;;9.90;;
75758;SDS011;64371;47.566;19.086;2023-10-19T00:58:09;16.63;;;9.93;;
75758;SDS011;64371;47.566;19.086;2023-10-19T01:01:12;15.50;;;9.95;;
75758;SDS011;64371;47.566;19.086;2023-10-19T01:04:15;17.75;;;10.45;;
75758;SDS011;64371;47.566;19.086;2023-10-19T01:07:24;16.67;;;10.07;;
75758;SDS011;64371;47.566;19.086;2023-10-19T01:10:34;16.95;;;9.43;;
75758;SDS011;64371;47.566;19.086;2023-10-19T01:13:38;17.90;;;10.40;;
75758;SDS011;64371;47.566;19.086;2023-10-19T01:16:48;18.77;;;9.65;;
75758;SDS011;64371;47.566;19.086;2023-10-19T01:19:52;20.55;;;10.57;;
75758;SDS011;64371;47.566;19.086;2023-10-19T01:23:05;23.50;;;10.40;;
75758;SDS011;64371;47.566;19.086;2023-10-19T01:26:13;17.10;;;9.82;;
75758;SDS011;64371;47.566;19.086;2023-10-19T01:29:20;16.67;;;9.90;;
75758;SDS011;64371;47.566;19.086;2023-10-19T01:32:29;21.45;;;11.10;;
75758;SDS011;64371;47.566;19.086;2023-10-19T01:35:32;18.17;;;10.20;;
75758;SDS011;64371;47.566;19.086;2023-10-19T01:38:55;19.80;;;9.90;;
75758;SDS011;64371;47.566;19.086;2023-10-19T01:42:02;15.23;;;9.70;;
75758;SDS011;64371;47.566;19.086;2023-10-19T01:45:10;22.08;;;11.55;;
75758;SDS011;64371;47.566;19.086;2023-10-19T01:48:14;22.42;;;10.60;;
75758;SDS011;64371;47.566;19.086;2023-10-19T01:51:18;17.92;;;11.52;;
75758;SDS011;64371;47.566;19.086;2023-10-19T01:54:21;19.60;;;10.53;;
75758;SDS011;64371;47.566;19.086;2023-10-19T01:57:28;21.17;;;11.30;;
75758;SDS011;64371;47.566;19.086;2023-10-19T02:00:30;26.15;;;11.88;;
75758;SDS011;64371;47.566;19.086;2023-10-19T02:03:33;20.58;;;12.10;;
75758;SDS011;64371;47.566;19.086;2023-10-19T02:06:37;25.38;;;12.43;;
75758;SDS011;64371;47.566;19.086;2023-10-19T02:09:40;23.57;;;11.63;;
75758;SDS011;64371;47.566;19.086;2023-10-19T02:12:43;21.88;;;12.95;;
75758;SDS011;64371;47.566;19.086;2023-10-19T02:15:48;23.73;;;14.63;;
75758;SDS011;64371;47.566;19.086;2023-10-19T02:18:51;21.65;;;12.55;;
75758;SDS011;64371;47.566;19.086;2023-10-19T02:21:58;20.45;;;12.93;;
75758;SDS011;64371;47.566;19.086;2023-10-19T02:25:02;22.37;;;12.83;;
75758;SDS011;64371;47.566;19.086;2023-10-19T02:28:08;25.17;;;14.05;;
75758;SDS011;64371;47.566;19.086;2023-10-19T02:31:11;21.90;;;12.82;;
75758;SDS011;64371;47.566;19.086;2023-10-19T02:34:17;23.20;;;13.82;;
75758;SDS011;64371;47.566;19.086;2023-10-19T02:37:20;26.83;;;14.13;;
75758;SDS011;64371;47.566;19.086;2023-10-19T02:40:22;24.97;;;14.93;;
75758;SDS011;64371;47.566;19.086;2023-10-19T02:43:26;26.90;;;14.82;;
75758;SDS011;64371;47.566;19.086;2023-10-19T02:46:28;26.65;;;14.40;;
75758;SDS011;64371;47.566;19.086;2023-10-19T02:49:31;27.63;;;15.35;;
75758;SDS011;64371;47.566;19.086;2023-10-19T02:52:33;25.52;;;15.10;;
75758;SDS011;64371;47.566;19.086;2023-10-19T02:55:36;15.57;;;8.03;;
75758;SDS011;64371;47.566;19.086;2023-10-19T02:58:43;29.85;;;16.15;;
75758;SDS011;64371;47.566;19.086;2023-10-19T03:01:52;34.00;;;17.88;;
75758;SDS011;64371;47.566;19.086;2023-10-19T03:05:12;34.88;;;19.98;;
75758;SDS011;64371;47.566;19.086;2023-10-19T03:08:19;37.20;;;20.85;;
75758;SDS011;64371;47.566;19.086;2023-10-19T03:11:22;37.20;;;20.70;;
75758;SDS011;64371;47.566;19.086;2023-10-19T03:14:24;39.63;;;21.60;;
75758;SDS011;64371;47.566;19.086;2023-10-19T03:17:28;36.55;;;20.63;;
75758;SDS011;64371;47.566;19.086;2023-10-19T03:20:32;37.33;;;20.20;;
75758;SDS011;64371;47.566;19.086;2023-10-19T03:23:35;39.63;;;20.95;;
75758;SDS011;64371;47.566;19.086;2023-10-19T03:26:39;37.27;;;20.83;;
75758;SDS011;64371;47.566;19.086;2023-10-19T03:29:52;35.40;;;20.38;;
75758;SDS011;64371;47.566;19.086;2023-10-19T03:32:58;38.33;;;20.55;;
75758;SDS011;64371;47.566;19.086;2023-10-19T03:36:02;38.58;;;21.88;;
75758;SDS011;64371;47.566;19.086;2023-10-19T03:39:15;41.92;;;22.13;;
75758;SDS011;64371;47.566;19.086;2023-10-19T03:42:19;41.53;;;22.73;;
75758;SDS011;64371;47.566;19.086;2023-10-19T03:45:23;45.17;;;23.02;;
75758;SDS011;64371;47.566;19.086;2023-10-19T03:48:26;41.35;;;22.13;;
75758;SDS011;64371;47.566;19.086;2023-10-19T03:51:39;42.05;;;22.25;;
75758;SDS011;64371;47.566;19.086;2023-10-19T03:54:43;47.33;;;24.10;;
75758;SDS011;64371;47.566;19.086;2023-10-19T03:57:46;42.20;;;23.53;;
75758;SDS011;64371;47.566;19.086;2023-10-19T04:00:57;43.70;;;24.00;;
75758;SDS011;64371;47.566;19.086;2023-10-19T04:04:04;48.05;;;24.98;;
75758;SDS011;64371;47.566;19.086;2023-10-19T04:07:07;44.67;;;25.45;;
75758;SDS011;64371;47.566;19.086;2023-10-19T04:10:24;47.10;;;26.42;;
75758;SDS011;64371;47.566;19.086;2023-10-19T04:13:53;44.93;;;25.13;;
75758;SDS011;64371;47.566;19.086;2023-10-19T04:16:55;47.88;;;25.83;;
75758;SDS011;64371;47.566;19.086;2023-10-19T04:19:58;50.50;;;27.00;;
75758;SDS011;64371;47.566;19.086;2023-10-19T04:23:00;53.00;;;28.48;;
75758;SDS011;64371;47.566;19.086;2023-10-19T04:26:13;46.65;;;25.50;;
75758;SDS011;64371;47.566;19.086;2023-10-19T04:29:16;51.77;;;28.10;;
75758;SDS011;64371;47.566;19.086;2023-10-19T04:32:30;51.15;;;27.25;;
75758;SDS011;64371;47.566;19.086;2023-10-19T04:35:34;54.15;;;26.80;;
75758;SDS011;64371;47.566;19.086;2023-10-19T04:38:37;47.95;;;26.67;;
75758;SDS011;64371;47.566;19.086;2023-10-19T04:41:40;52.35;;;28.98;;
75758;SDS011;64371;47.566;19.086;2023-10-19T04:44:45;44.43;;;23.70;;
75758;SDS011;64371;47.566;19.086;2023-10-19T04:47:50;48.88;;;26.58;;
75758;SDS011;64371;47.566;19.086;2023-10-19T04:50:55;45.75;;;25.65;;
75758;SDS011;64371;47.566;19.086;2023-10-19T04:53:59;49.65;;;27.50;;
75758;SDS011;64371;47.566;19.086;2023-10-19T04:57:01;48.63;;;26.77;;
75758;SDS011;64371;47.566;19.086;2023-10-19T05:00:04;50.57;;;27.63;;
75758;SDS011;64371;47.566;19.086;2023-10-19T05:03:07;51.63;;;28.17;;
75758;SDS011;64371;47.566;19.086;2023-10-19T05:06:10;54.08;;;28.50;;
75758;SDS011;64371;47.566;19.086;2023-10-19T05:09:12;52.28;;;28.25;;
75758;SDS011;64371;47.566;19.086;2023-10-19T05:12:15;50.63;;;27.13;;
75758;SDS011;64371;47.566;19.086;2023-10-19T05:15:18;52.43;;;27.33;;
75758;SDS011;64371;47.566;19.086;2023-10-19T05:18:21;47.95;;;25.98;;
75758;SDS011;64371;47.566;19.086;2023-10-19T05:21:24;50.53;;;27.08;;
75758;SDS011;64371;47.566;19.086;2023-10-19T05:24:27;51.85;;;26.67;;
75758;SDS011;64371;47.566;19.086;2023-10-19T05:27:30;51.25;;;27.27;;
75758;SDS011;64371;47.566;19.086;2023-10-19T05:30:33;52.80;;;26.20;;
75758;SDS011;64371;47.566;19.086;2023-10-19T05:33:36;43.10;;;24.70;;
75758;SDS011;64371;47.566;19.086;2023-10-19T05:36:38;43.22;;;23.55;;
75758;SDS011;64371;47.566;19.086;2023-10-19T05:39:42;42.17;;;22.92;;
75758;SDS011;64371;47.566;19.086;2023-10-19T05:42:44;47.28;;;24.25;;
75758;SDS011;64371;47.566;19.086;2023-10-19T05:45:48;45.07;;;24.87;;
75758;SDS011;64371;47.566;19.086;2023-10-19T05:48:52;50.33;;;25.50;;
75758;SDS011;64371;47.566;19.086;2023-10-19T05:51:58;48.08;;;25.00;;
75758;SDS011;64371;47.566;19.086;2023-10-19T05:55:01;45.05;;;23.38;;
75758;SDS011;64371;47.566;19.086;2023-10-19T05:58:03;43.45;;;22.73;;
75758;SDS011;64371;47.566;19.086;2023-10-19T06:01:06;41.47;;;22.10;;
75758;SDS011;64371;47.566;19.086;2023-10-19T06:04:08;46.45;;;23.13;;
75758;SDS011;64371;47.566;19.086;2023-10-19T06:07:13;44.13;;;22.08;;
75758;SDS011;64371;47.566;19.086;2023-10-19T06:10:18;42.80;;;22.67;;
75758;SDS011;64371;47.566;19.086;2023-10-19T06:13:23;46.13;;;23.25;;
75758;SDS011;64371;47.566;19.086;2023-10-19T06:16:25;37.17;;;21.00;;
75758;SDS011;64371;47.566;19.086;2023-10-19T06:19:28;43.80;;;22.65;;
75758;SDS011;64371;47.566;19.086;2023-10-19T06:22:32;42.13;;;22.35;;
75758;SDS011;64371;47.566;19.086;2023-10-19T06:25:35;44.45;;;23.40;;
75758;SDS011;64371;47.566;19.086;2023-10-19T06:28:38;38.35;;;21.23;;
75758;SDS011;64371;47.566;19.086;2023-10-19T06:31:42;40.10;;;20.77;;
75758;SDS011;64371;47.566;19.086;2023-10-19T06:34:45;30.70;;;16.85;;
75758;SDS011;64371;47.566;19.086;2023-10-19T06:37:49;35.20;;;18.98;;
75758;SDS011;64371;47.566;19.086;2023-10-19T06:40:54;37.03;;;20.55;;
75758;SDS011;64371;47.566;19.086;2023-10-19T06:43:56;39.55;;;21.15;;
75758;SDS011;64371;47.566;19.086;2023-10-19T06:47:00;34.17;;;20.00;;
75758;SDS011;64371;47.566;19.086;2023-10-19T06:50:04;40.50;;;20.08;;
75758;SDS011;64371;47.566;19.086;2023-10-19T06:53:12;32.08;;;19.00;;
75758;SDS011;64371;47.566;19.086;2023-10-19T06:56:14;36.17;;;19.90;;
75758;SDS011;64371;47.566;19.086;2023-10-19T06:59:18;34.42;;;19.10;;
75758;SDS011;64371;47.566;19.086;2023-10-19T07:02:20;32.80;;;18.07;;
75758;SDS011;64371;47.566;19.086;2023-10-19T07:05:23;28.02;;;14.63;;
75758;SDS011;64371;47.566;19.086;2023-10-19T07:08:32;32.33;;;17.23;;
75758;SDS011;64371;47.566;19.086;2023-10-19T07:11:37;28.50;;;15.18;;
75758;SDS011;64371;47.566;19.086;2023-10-19T07:14:39;33.03;;;18.60;;
75758;SDS011;64371;47.566;19.086;2023-10-19T07:17:43;33.17;;;18.43;;
75758;SDS011;64371;47.566;19.086;2023-10-19T07:20:46;35.38;;;18.73;;
75758;SDS011;64371;47.566;19.086;2023-10-19T07:23:50;30.65;;;17.60;;
75758;SDS011;64371;47.566;19.086;2023-10-19T07:26:55;32.30;;;19.20;;
75758;SDS011;64371;47.566;19.086;2023-10-19T07:30:07;32.13;;;18.38;;
75758;SDS011;64371;47.566;19.086;2023-10-19T07:33:12;36.83;;;20.60;;
75758;SDS011;64371;47.566;19.086;2023-10-19T07:36:24;35.15;;;19.25;;
75758;SDS011;64371;47.566;19.086;2023-10-19T07:39:27;37.28;;;19.42;;
75758;SDS011;64371;47.566;19.086;2023-10-19T07:42:31;26.92;;;14.40;;
75758;SDS011;64371;47.566;19.086;2023-10-19T07:45:36;27.65;;;17.13;;
75758;SDS011;64371;47.566;19.086;2023-10-19T07:48:39;33.63;;;19.90;;
75758;SDS011;64371;47.566;19.086;2023-10-19T07:51:45;32.15;;;19.00;;
75758;SDS011;64371;47.566;19.086;2023-10-19T07:54:49;31.88;;;17.95;;
75758;SDS011;64371;47.566;19.086;2023-10-19T07:57:52;28.58;;;17.08;;
75758;SDS011;64371;47.566;19.086;2023-10-19T08:00:54;30.15;;;17.40;;
75758;SDS011;64371;47.566;19.086;2023-10-19T08:03:59;32.23;;;18.03;;
75758;SDS011;64371;47.566;19.086;2023-10-19T08:07:01;30.35;;;17.27;;
75758;SDS011;64371;47.566;19.086;2023-10-19T08:10:06;30.85;;;17.50;;
75758;SDS011;64371;47.566;19.086;2023-10-19T08:13:11;30.23;;;17.80;;
75758;SDS011;64371;47.566;19.086;2023-10-19T08:16:14;30.57;;;16.63;;
75758;SDS011;64371;47.566;19.086;2023-10-19T08:19:19;28.73;;;17.00;;
75758;SDS011;64371;47.566;19.086;2023-10-19T08:22:21;26.10;;;15.82;;
75758;SDS011;64371;47.566;19.086;2023-10-19T08:25:24;27.88;;;16.15;;
75758;SDS011;64371;47.566;19.086;2023-10-19T08:28:44;27.60;;;17.02;;
75758;SDS011;64371;47.566;19.086;2023-10-19T08:31:47;29.75;;;17.83;;
75758;SDS011;64371;47.566;19.086;2023-10-19T08:34:50;26.10;;;15.17;;
75758;SDS011;64371;47.566;19.086;2023-10-19T08:37:56;26.05;;;15.93;;
75758;SDS011;64371;47.566;19.086;2023-10-19T08:41:02;26.50;;;16.02;;
75758;SDS011;64371;47.566;19.086;2023-10-19T08:44:05;26.55;;;16.02;;
75758;SDS011;64371;47.566;19.086;2023-10-19T08:47:17;25.50;;;15.38;;
75758;SDS011;64371;47.566;19.086;2023-10-19T08:50:20;26.90;;;16.23;;
75758;SDS011;64371;47.566;19.086;2023-10-19T08:53:25;25.90;;;14.68;;
75758;SDS011;64371;47.566;19.086;2023-10-19T08:56:30;28.17;;;17.10;;
75758;SDS011;64371;47.566;19.086;2023-10-19T08:59:35;30.58;;;16.67;;
75758;SDS011;64371;47.566;19.086;2023-10-19T09:02:37;29.77;;;16.70;;
75758;SDS011;64371;47.566;19.086;2023-10-19T09:05:41;29.87;;;16.23;;
75758;SDS011;64371;47.566;19.086;2023-10-19T09:08:46;26.55;;;15.88;;
75758;SDS011;64371;47.566;19.086;2023-10-19T09:11:50;28.40;;;16.58;;
75758;SDS011;64371;47.566;19.086;2023-10-19T09:14:55;27.40;;;16.90;;
75758;SDS011;64371;47.566;19.086;2023-10-19T09:21:21;28.83;;;16.60;;
75758;SDS011;64371;47.566;19.086;2023-10-19T09:24:26;27.60;;;16.48;;
75758;SDS011;64371;47.566;19.086;2023-10-19T09:27:32;28.20;;;16.92;;
75758;SDS011;64371;47.566;19.086;2023-10-19T09:30:35;27.48;;;16.02;;
75758;SDS011;64371;47.566;19.086;2023-10-19T09:33:41;26.25;;;16.05;;
75758;SDS011;64371;47.566;19.086;2023-10-19T09:36:43;24.33;;;15.13;;
75758;SDS011;64371;47.566;19.086;2023-10-19T09:39:46;27.05;;;17.23;;
75758;SDS011;64371;47.566;19.086;2023-10-19T09:42:49;28.88;;;15.70;;
75758;SDS011;64371;47.566;19.086;2023-10-19T09:46:00;25.42;;;15.20;;
75758;SDS011;64371;47.566;19.086;2023-10-19T09:49:03;26.95;;;15.55;;
75758;SDS011;64371;47.566;19.086;2023-10-19T09:52:06;28.60;;;15.90;;
75758;SDS011;64371;47.566;19.086;2023-10-19T09:55:32;26.73;;;16.13;;
75758;SDS011;64371;47.566;19.086;2023-10-19T09:58:50;26.33;;;15.75;;
75758;SDS011;64371;47.566;19.086;2023-10-19T10:02:14;25.48;;;16.35;;
75758;SDS011;64371;47.566;19.086;2023-10-19T10:08:44;25.67;;;16.47;;
75758;SDS011;64371;47.566;19.086;2023-10-19T10:11:50;26.35;;;15.98;;
75758;SDS011;64371;47.566;19.086;2023-10-19T10:15:01;27.40;;;16.13;;
75758;SDS011;64371;47.566;19.086;2023-10-19T10:18:14;27.88;;;15.82;;
75758;SDS011;64371;47.566;19.086;2023-10-19T10:21:18;30.65;;;15.55;;
75758;SDS011;64371;47.566;19.086;2023-10-19T10:24:22;26.63;;;15.33;;
75758;SDS011;64371;47.566;19.086;2023-10-19T10:27:26;28.45;;;16.60;;
75758;SDS011;64371;47.566;19.086;2023-10-19T10:30:28;26.65;;;16.55;;
75758;SDS011;64371;47.566;19.086;2023-10-19T10:33:40;29.00;;;17.48;;
75758;SDS011;64371;47.566;19.086;2023-10-19T10:37:00;29.25;;;16.80;;
75758;SDS011;64371;47.566;19.086;2023-10-19T10:40:10;28.23;;;16.40;;
75758;SDS011;64371;47.566;19.086;2023-10-19T10:43:14;29.08;;;16.55;;
75758;SDS011;64371;47.566;19.086;2023-10-19T10:46:20;30.08;;;17.70;;
75758;SDS011;64371;47.566;19.086;2023-10-19T10:49:23;28.27;;;17.52;;
75758;SDS011;64371;47.566;19.086;2023-10-19T10:55:36;26.23;;;15.33;;
75758;SDS011;64371;47.566;19.086;2023-10-19T10:58:40;35.55;;;18.05;;
75758;SDS011;64371;47.566;19.086;2023-10-19T11:01:44;32.88;;;17.67;;
75758;SDS011;64371;47.566;19.086;2023-10-19T11:04:46;30.50;;;17.75;;
75758;SDS011;64371;47.566;19.086;2023-10-19T11:08:02;31.20;;;16.48;;
75758;SDS011;64371;47.566;19.086;2023-10-19T11:11:09;31.23;;;18.20;;
75758;SDS011;64371;47.566;19.086;2023-10-19T11:14:15;34.13;;;18.05;;
75758;SDS011;64371;47.566;19.086;2023-10-19T11:17:18;31.13;;;17.75;;
75758;SDS011;64371;47.566;19.086;2023-10-19T11:20:22;30.85;;;17.75;;
75758;SDS011;64371;47.566;19.086;2023-10-19T11:23:40;29.48;;;16.70;;
75758;SDS011;64371;47.566;19.086;2023-10-19T11:26:49;28.63;;;17.10;;
75758;SDS011;64371;47.566;19.086;2023-10-19T11:29:57;31.23;;;16.08;;
75758;SDS011;64371;47.566;19.086;2023-10-19T11:33:05;31.85;;;17.85;;
75758;SDS011;64371;47.566;19.086;2023-10-19T11:36:08;30.42;;;16.20;;
75758;SDS011;64371;47.566;19.086;2023-10-19T11:39:11;30.52;;;17.92;;
75758;SDS011;64371;47.566;19.086;2023-10-19T11:42:14;29.90;;;18.17;;
75758;SDS011;64371;47.566;19.086;2023-10-19T11:45:20;34.38;;;18.25;;
75758;SDS011;64371;47.566;19.086;2023-10-19T11:48:22;32.47;;;18.33;;
75758;SDS011;64371;47.566;19.086;2023-10-19T11:51:28;31.27;;;17.83;;
75758;SDS011;64371;47.566;19.086;2023-10-19T11:54:35;30.33;;;16.75;;
75758;SDS011;64371;47.566;19.086;2023-10-19T11:57:43;28.03;;;16.47;;
75758;SDS011;64371;47.566;19.086;2023-10-19T12:00:47;35.30;;;18.25;;
75758;SDS011;64371;47.566;19.086;2023-10-19T12:03:53;29.40;;;17.08;;
75758;SDS011;64371;47.566;19.086;2023-10-19T12:06:56;30.13;;;18.00;;
75758;SDS011;64371;47.566;19.086;2023-10-19T12:10:09;30.75;;;18.05;;
75758;SDS011;64371;47.566;19.086;2023-10-19T12:13:14;33.23;;;19.00;;
75758;SDS011;64371;47.566;19.086;2023-10-19T12:16:18;31.48;;;17.98;;
75758;SDS011;64371;47.566;19.086;2023-10-19T12:19:23;28.50;;;16.67;;
75758;SDS011;64371;47.566;19.086;2023-10-19T12:22:25;32.10;;;18.15;;
75758;SDS011;64371;47.566;19.086;2023-10-19T12:25:34;29.23;;;16.33;;
75758;SDS011;64371;47.566;19.086;2023-10-19T12:28:57;31.13;;;18.47;;
75758;SDS011;64371;47.566;19.086;2023-10-19T12:32:00;32.65;;;18.55;;
75758;SDS011;64371;47.566;19.086;2023-10-19T12:35:02;30.20;;;17.35;;
75758;SDS011;64371;47.566;19.086;2023-10-19T12:38:06;31.88;;;18.52;;
75758;SDS011;64371;47.566;19.086;2023-10-19T12:41:09;32.55;;;19.23;;
75758;SDS011;64371;47.566;19.086;2023-10-19T12:44:11;33.33;;;21.40;;
75758;SDS011;64371;47.566;19.086;2023-10-19T12:47:14;32.65;;;19.83;;
75758;SDS011;64371;47.566;19.086;2023-10-19T12:50:19;35.83;;;21.25;;
75758;SDS011;64371;47.566;19.086;2023-10-19T12:53:25;37.72;;;22.05;;
75758;SDS011;64371;47.566;19.086;2023-10-19T12:56:29;39.55;;;21.42;;
75758;SDS011;64371;47.566;19.086;2023-10-19T12:59:37;34.57;;;19.90;;
75758;SDS011;64371;47.566;19.086;2023-10-19T13:02:40;34.75;;;18.70;;
75758;SDS011;64371;47.566;19.086;2023-10-19T13:05:43;32.28;;;18.50;;
75758;SDS011;64371;47.566;19.086;2023-10-19T13:08:51;34.13;;;19.50;;
75758;SDS011;64371;47.566;19.086;2023-10-19T13:11:54;35.35;;;20.05;;
75758;SDS011;64371;47.566;19.086;2023-10-19T13:14:56;36.90;;;20.03;;
75758;SDS011;64371;47.566;19.086;2023-10-19T13:17:59;35.10;;;19.35;;
75758;SDS011;64371;47.566;19.086;2023-10-19T13:21:03;35.35;;;19.77;;
75758;SDS011;64371;47.566;19.086;2023-10-19T13:24:11;31.60;;;18.73;;
75758;SDS011;64371;47.566;19.086;2023-10-19T13:27:13;31.40;;;18.55;;
75758;SDS011;64371;47.566;19.086;2023-10-19T13:30:16;31.13;;;18.97;;
75758;SDS011;64371;47.566;19.086;2023-10-19T13:33:19;33.10;;;19.20;;
75758;SDS011;64371;47.566;19.086;2023-10-19T13:36:23;35.92;;;21.33;;
75758;SDS011;64371;47.566;19.086;2023-10-19T13:39:26;33.83;;;20.50;;
75758;SDS011;64371;47.566;19.086;2023-10-19T13:42:31;32.13;;;19.63;;
75758;SDS011;64371;47.566;19.086;2023-10-19T13:45:38;37.73;;;22.40;;
75758;SDS011;64371;47.566;19.086;2023-10-19T13:48:43;36.53;;;20.15;;
75758;SDS011;64371;47.566;19.086;2023-10-19T13:51:45;32.70;;;19.55;;
75758;SDS011;64371;47.566;19.086;2023-10-19T13:54:48;34.83;;;20.45;;
75758;SDS011;64371;47.566;19.086;2023-10-19T13:57:50;36.55;;;21.35;;
75758;SDS011;64371;47.566;19.086;2023-10-19T14:00:54;31.63;;;19.40;;
75758;SDS011;64371;47.566;19.086;2023-10-19T14:03:56;35.05;;;20.55;;
75758;SDS011;64371;47.566;19.086;2023-10-19T14:06:58;33.58;;;21.30;;
75758;SDS011;64371;47.566;19.086;2023-10-19T14:10:01;34.33;;;20.02;;
75758;SDS011;64371;47.566;19.086;2023-10-19T14:13:05;33.78;;;19.63;;
75758;SDS011;64371;47.566;19.086;2023-10-19T14:16:08;34.90;;;20.80;;
75758;SDS011;64371;47.566;19.086;2023-10-19T14:19:12;35.80;;;21.05;;
75758;SDS011;64371;47.566;19.086;2023-10-19T14:22:16;34.33;;;19.67;;
75758;SDS011;64371;47.566;19.086;2023-10-19T14:25:19;34.30;;;21.02;;
75758;SDS011;64371;47.566;19.086;2023-10-19T14:28:27;37.38;;;20.95;;
75758;SDS011;64371;47.566;19.086;2023-10-19T14:31:29;38.17;;;21.63;;
75758;SDS011;64371;47.566;19.086;2023-10-19T14:34:33;36.72;;;21.88;;
75758;SDS011;64371;47.566;19.086;2023-10-19T14:37:37;37.05;;;21.67;;
75758;SDS011;64371;47.566;19.086;2023-10-19T14:40:47;40.40;;;21.58;;
75758;SDS011;64371;47.566;19.086;2023-10-19T14:43:50;37.97;;;21.25;;
75758;SDS011;64371;47.566;19.086;2023-10-19T14:46:53;42.27;;;22.87;;
75758;SDS011;64371;47.566;19.086;2023-10-19T14:49:55;40.80;;;22.67;;
75758;SDS011;64371;47.566;19.086;2023-10-19T14:52:59;39.08;;;21.77;;
75758;SDS011;64371;47.566;19.086;2023-10-19T14:56:01;40.05;;;22.65;;
75758;SDS011;64371;47.566;19.086;2023-10-19T14:59:04;44.03;;;22.77;;
75758;SDS011;64371;47.566;19.086;2023-10-19T15:02:08;45.07;;;22.80;;
75758;SDS011;64371;47.566;19.086;2023-10-19T15:05:15;46.55;;;23.63;;
75758;SDS011;64371;47.566;19.086;2023-10-19T15:08:19;42.55;;;22.55;;
75758;SDS011;64371;47.566;19.086;2023-10-19T15:11:22;45.83;;;23.58;;
75758;SDS011;64371;47.566;19.086;2023-10-19T15:14:26;47.70;;;23.92;;
75758;SDS011;64371;47.566;19.086;2023-10-19T15:17:33;45.37;;;21.50;;
75758;SDS011;64371;47.566;19.086;2023-10-19T15:20:37;50.28;;;23.45;;
75758;SDS011;64371;47.566;19.086;2023-10-19T15:23:41;47.17;;;21.73;;
75758;SDS011;64371;47.566;19.086;2023-10-19T15:26:43;51.38;;;24.45;;
75758;SDS011;64371;47.566;19.086;2023-10-19T15:29:45;60.08;;;27.85;;
75758;SDS011;64371;47.566;19.086;2023-10-19T15:32:49;64.83;;;32.67;;
75758;SDS011;64371;47.566;19.086;2023-10-19T15:35:52;57.33;;;27.73;;
75758;SDS011;64371;47.566;19.086;2023-10-19T15:38:55;60.53;;;29.77;;
75758;SDS011;64371;47.566;19.086;2023-10-19T15:41:57;57.75;;;27.77;;
75758;SDS011;64371;47.566;19.086;2023-10-19T15:45:00;61.55;;;29.35;;
75758;SDS011;64371;47.566;19.086;2023-10-19T15:48:03;58.47;;;26.67;;
75758;SDS011;64371;47.566;19.086;2023-10-19T15:51:06;56.40;;;26.67;;
75758;SDS011;64371;47.566;19.086;2023-10-19T15:54:08;56.85;;;25.88;;
75758;SDS011;64371;47.566;19.086;2023-10-19T15:57:11;56.70;;;27.25;;
75758;SDS011;64371;47.566;19.086;2023-10-19T16:00:14;54.00;;;25.85;;
75758;SDS011;64371;47.566;19.086;2023-10-19T16:03:17;61.10;;;28.60;;
75758;SDS011;64371;47.566;19.086;2023-10-19T16:06:20;59.38;;;27.77;;
75758;SDS011;64371;47.566;19.086;2023-10-19T16:09:24;56.97;;;27.15;;
75758;SDS011;64371;47.566;19.086;2023-10-19T16:12:27;59.55;;;27.35;;
75758;SDS011;64371;47.566;19.086;2023-10-19T16:15:30;58.40;;;26.42;;
75758;SDS011;64371;47.566;19.086;2023-10-19T16:18:33;62.13;;;27.57;;
75758;SDS011;64371;47.566;19.086;2023-10-19T16:21:36;56.53;;;24.33;;
75758;SDS011;64371;47.566;19.086;2023-10-19T16:24:42;57.08;;;26.15;;
75758;SDS011;64371;47.566;19.086;2023-10-19T16:27:46;62.50;;;26.75;;
75758;SDS011;64371;47.566;19.086;2023-10-19T16:30:49;60.25;;;26.63;;
75758;SDS011;64371;47.566;19.086;2023-10-19T16:33:53;64.33;;;29.57;;
75758;SDS011;64371;47.566;19.086;2023-10-19T16:36:56;65.20;;;28.98;;
75758;SDS011;64371;47.566;19.086;2023-10-19T16:39:58;65.25;;;28.30;;
75758;SDS011;64371;47.566;19.086;2023-10-19T16:43:08;65.00;;;29.02;;
75758;SDS011;64371;47.566;19.086;2023-10-19T16:46:11;63.00;;;29.85;;
75758;SDS011;64371;47.566;19.086;2023-10-19T16:49:15;61.30;;;28.20;;
75758;SDS011;64371;47.566;19.086;2023-10-19T16:52:18;57.53;;;28.08;;
75758;SDS011;64371;47.566;19.086;2023-10-19T16:55:20;58.13;;;27.38;;
75758;SDS011;64371;47.566;19.086;2023-10-19T16:58:23;58.20;;;27.23;;
75758;SDS011;64371;47.566;19.086;2023-10-19T17:01:25;58.25;;;28.45;;
75758;SDS011;64371;47.566;19.086;2023-10-19T17:04:29;69.57;;;36.13;;
75758;SDS011;64371;47.566;19.086;2023-10-19T17:07:32;58.03;;;29.95;;
75758;SDS011;64371;47.566;19.086;2023-10-19T17:10:34;57.75;;;29.42;;
75758;SDS011;64371;47.566;19.086;2023-10-19T17:13:37;58.75;;;28.25;;
75758;SDS011;64371;47.566;19.086;2023-10-19T17:16:42;68.22;;;37.35;;
75758;SDS011;64371;47.566;19.086;2023-10-19T17:19:46;63.87;;;31.47;;
75758;SDS011;64371;47.566;19.086;2023-10-19T17:22:49;59.63;;;28.90;;
75758;SDS011;64371;47.566;19.086;2023-10-19T17:25:52;58.25;;;31.42;;
75758;SDS011;64371;47.566;19.086;2023-10-19T17:28:55;57.80;;;31.15;;
75758;SDS011;64371;47.566;19.086;2023-10-19T17:31:58;59.45;;;27.67;;
75758;SDS011;64371;47.566;19.086;2023-10-19T17:35:01;56.53;;;32.00;;
75758;SDS011;64371;47.566;19.086;2023-10-19T17:38:07;49.40;;;25.95;;
75758;SDS011;64371;47.566;19.086;2023-10-19T17:41:10;51.42;;;27.27;;
75758;SDS011;64371;47.566;19.086;2023-10-19T17:44:13;51.65;;;24.83;;
75758;SDS011;64371;47.566;19.086;2023-10-19T17:47:16;55.00;;;27.40;;
75758;SDS011;64371;47.566;19.086;2023-10-19T17:50:19;54.20;;;27.00;;
75758;SDS011;64371;47.566;19.086;2023-10-19T17:53:21;56.25;;;27.40;;
75758;SDS011;64371;47.566;19.086;2023-10-19T17:56:27;49.85;;;25.75;;
75758;SDS011;64371;47.566;19.086;2023-10-19T17:59:30;58.42;;;28.83;;